sensor_id;sensor_type;location;lat;lon;timestamp;temperature;humidity
73875;HTU21D;62209;47.568;7.558;2022-11-15T00:04:48;10.12;100.86
73875;HTU21D;62209;47.568;7.558;2022-11-15T00:19:53;10.22;100.19
73875;HTU21D;62209;47.568;7.558;2022-11-15T00:34:59;10.27;100.01
73875;HTU21D;62209;47.568;7.558;2022-11-15T00:50:05;10.37;99.68
73875;HTU21D;62209;47.568;7.558;2022-11-15T01:05:17;10.40;99.87
73875;HTU21D;62209;47.568;7.558;2022-11-15T01:20:22;10.39;100.13
73875;HTU21D;62209;47.568;7.558;2022-11-15T01:35:28;10.37;100.57
73875;HTU21D;62209;47.568;7.558;2022-11-15T01:50:33;10.35;100.93
73875;HTU21D;62209;47.568;7.558;2022-11-15T02:05:39;10.28;101.08
73875;HTU21D;62209;47.568;7.558;2022-11-15T02:36:17;10.13;102.59
73875;HTU21D;62209;47.568;7.558;2022-11-15T02:51:30;10.00;103.80
73875;HTU21D;62209;47.568;7.558;2022-11-15T03:06:38;9.94;104.00
73875;HTU21D;62209;47.568;7.558;2022-11-15T03:21:49;9.89;104.40
73875;HTU21D;62209;47.568;7.558;2022-11-15T03:36:55;9.75;105.69
73875;HTU21D;62209;47.568;7.558;2022-11-15T03:52:01;9.66;106.45
73875;HTU21D;62209;47.568;7.558;2022-11-15T04:07:08;9.48;107.60
73875;HTU21D;62209;47.568;7.558;2022-11-15T04:22:14;9.40;107.80
73875;HTU21D;62209;47.568;7.558;2022-11-15T04:37:37;9.41;107.61
73875;HTU21D;62209;47.568;7.558;2022-11-15T04:52:51;9.38;107.94
73875;HTU21D;62209;47.568;7.558;2022-11-15T05:07:58;9.40;107.72
73875;HTU21D;62209;47.568;7.558;2022-11-15T05:23:04;9.31;108.45
73875;HTU21D;62209;47.568;7.558;2022-11-15T05:38:10;9.24;108.21
73875;HTU21D;62209;47.568;7.558;2022-11-15T05:53:16;9.20;108.46
73875;HTU21D;62209;47.568;7.558;2022-11-15T06:08:25;9.22;108.36
73875;HTU21D;62209;47.568;7.558;2022-11-15T06:23:32;9.16;108.49
73875;HTU21D;62209;47.568;7.558;2022-11-15T06:38:39;9.18;108.65
73875;HTU21D;62209;47.568;7.558;2022-11-15T06:53:45;9.19;108.73
73875;HTU21D;62209;47.568;7.558;2022-11-15T07:08:50;9.24;108.65
73875;HTU21D;62209;47.568;7.558;2022-11-15T07:23:56;9.30;108.07
73875;HTU21D;62209;47.568;7.558;2022-11-15T07:39:02;9.38;108.61
73875;HTU21D;62209;47.568;7.558;2022-11-15T07:54:07;9.42;108.43
73875;HTU21D;62209;47.568;7.558;2022-11-15T08:09:13;9.52;108.51
73875;HTU21D;62209;47.568;7.558;2022-11-15T08:24:19;9.61;108.15
73875;HTU21D;62209;47.568;7.558;2022-11-15T08:39:24;9.64;107.95
73875;HTU21D;62209;47.568;7.558;2022-11-15T08:54:30;9.76;107.85
73875;HTU21D;62209;47.568;7.558;2022-11-15T09:09:36;9.82;107.43
73875;HTU21D;62209;47.568;7.558;2022-11-15T09:24:42;9.83;106.96
73875;HTU21D;62209;47.568;7.558;2022-11-15T09:39:47;9.86;106.52
73875;HTU21D;62209;47.568;7.558;2022-11-15T09:54:53;10.09;105.89
73875;HTU21D;62209;47.568;7.558;2022-11-15T10:10:00;10.15;105.36
73875;HTU21D;62209;47.568;7.558;2022-11-15T10:25:19;10.48;105.15
73875;HTU21D;62209;47.568;7.558;2022-11-15T10:40:26;10.71;104.77
73875;HTU21D;62209;47.568;7.558;2022-11-15T10:55:32;11.01;104.09
73875;HTU21D;62209;47.568;7.558;2022-11-15T11:10:39;11.45;102.76
73875;HTU21D;62209;47.568;7.558;2022-11-15T11:26:07;11.73;102.19
73875;HTU21D;62209;47.568;7.558;2022-11-15T11:41:30;12.03;101.01
73875;HTU21D;62209;47.568;7.558;2022-11-15T11:56:56;12.15;99.91
73875;HTU21D;62209;47.568;7.558;2022-11-15T12:12:06;11.88;101.91
73875;HTU21D;62209;47.568;7.558;2022-11-15T12:27:17;12.03;100.76
73875;HTU21D;62209;47.568;7.558;2022-11-15T12:42:39;12.34;101.06
73875;HTU21D;62209;47.568;7.558;2022-11-15T12:57:46;12.40;100.70
73875;HTU21D;62209;47.568;7.558;2022-11-15T13:12:55;12.37;100.30
73875;HTU21D;62209;47.568;7.558;2022-11-15T13:28:03;12.34;100.54
73875;HTU21D;62209;47.568;7.558;2022-11-15T13:43:28;12.38;98.66
73875;HTU21D;62209;47.568;7.558;2022-11-15T13:58:38;12.37;98.07
73875;HTU21D;62209;47.568;7.558;2022-11-15T14:14:02;12.30;96.53
73875;HTU21D;62209;47.568;7.558;2022-11-15T14:29:26;12.19;96.75
73875;HTU21D;62209;47.568;7.558;2022-11-15T14:59:47;11.85;96.88
73875;HTU21D;62209;47.568;7.558;2022-11-15T15:14:53;11.79;96.77
73875;HTU21D;62209;47.568;7.558;2022-11-15T15:29:58;11.67;97.09
73875;HTU21D;62209;47.568;7.558;2022-11-15T15:45:05;11.60;96.81
73875;HTU21D;62209;47.568;7.558;2022-11-15T16:00:12;11.47;97.89
73875;HTU21D;62209;47.568;7.558;2022-11-15T16:15:19;11.36;98.39
73875;HTU21D;62209;47.568;7.558;2022-11-15T16:30:27;11.22;99.00
73875;HTU21D;62209;47.568;7.558;2022-11-15T16:45:33;11.13;100.18
73875;HTU21D;62209;47.568;7.558;2022-11-15T17:00:39;11.12;99.96
73875;HTU21D;62209;47.568;7.558;2022-11-15T17:15:45;11.10;100.29
73875;HTU21D;62209;47.568;7.558;2022-11-15T17:30:51;11.10;100.20
73875;HTU21D;62209;47.568;7.558;2022-11-15T17:45:57;11.14;99.92
73875;HTU21D;62209;47.568;7.558;2022-11-15T18:01:07;11.14;99.32
73875;HTU21D;62209;47.568;7.558;2022-11-15T18:16:18;11.10;99.63
73875;HTU21D;62209;47.568;7.558;2022-11-15T18:31:25;10.99;99.96
73875;HTU21D;62209;47.568;7.558;2022-11-15T18:46:33;11.15;98.77
73875;HTU21D;62209;47.568;7.558;2022-11-15T19:01:40;10.85;101.96
73875;HTU21D;62209;47.568;7.558;2022-11-15T19:16:49;10.70;103.73
73875;HTU21D;62209;47.568;7.558;2022-11-15T19:31:57;10.62;104.20
73875;HTU21D;62209;47.568;7.558;2022-11-15T19:47:02;10.53;104.78
73875;HTU21D;62209;47.568;7.558;2022-11-15T20:02:11;10.48;104.90
73875;HTU21D;62209;47.568;7.558;2022-11-15T20:17:17;10.44;105.60
73875;HTU21D;62209;47.568;7.558;2022-11-15T20:32:23;10.36;106.21
73875;HTU21D;62209;47.568;7.558;2022-11-15T20:47:30;10.27;107.50
73875;HTU21D;62209;47.568;7.558;2022-11-15T21:02:36;10.20;108.10
73875;HTU21D;62209;47.568;7.558;2022-11-15T21:17:42;10.12;108.49
73875;HTU21D;62209;47.568;7.558;2022-11-15T21:32:48;9.99;109.19
73875;HTU21D;62209;47.568;7.558;2022-11-15T21:47:54;9.96;109.32
73875;HTU21D;62209;47.568;7.558;2022-11-15T22:02:59;9.82;110.17
73875;HTU21D;62209;47.568;7.558;2022-11-15T22:18:05;9.84;110.45
73875;HTU21D;62209;47.568;7.558;2022-11-15T22:33:11;9.81;110.56
73875;HTU21D;62209;47.568;7.558;2022-11-15T22:48:17;9.84;110.13
73875;HTU21D;62209;47.568;7.558;2022-11-15T23:03:24;9.84;110.37
73875;HTU21D;62209;47.568;7.558;2022-11-15T23:18:33;9.81;110.80
73875;HTU21D;62209;47.568;7.558;2022-11-15T23:33:39;9.83;110.91
73875;HTU21D;62209;47.568;7.558;2022-11-15T23:49:02;9.86;111.06
